createdAt,value
2023-03-26T00:01:23.859Z,99904.91
2023-03-26T00:04:46.616Z,99917.31
2023-03-26T00:08:10.353Z,99913.97
2023-03-26T00:11:32.079Z,99922.50
2023-03-26T00:14:53.792Z,99923.88
2023-03-26T00:18:15.491Z,99918.41
2023-03-26T00:21:37.441Z,99917.81
2023-03-26T00:25:01.501Z,99935.28
2023-03-26T00:28:23.539Z,99931.78
2023-03-26T00:31:46.345Z,99927.88
2023-03-26T00:35:08.715Z,99933.31
2023-03-26T00:38:30.908Z,99938.59
2023-03-26T00:41:54.666Z,99930.53
2023-03-26T00:45:17.155Z,99942.94
2023-03-26T00:48:45.484Z,99941.13
2023-03-26T00:52:08.689Z,99930.38
2023-03-26T00:55:30.452Z,99931.50
2023-03-26T00:58:54.187Z,99934.88
2023-03-26T01:02:18.711Z,99933.75
2023-03-26T01:05:48.742Z,99936.66
2023-03-26T01:09:17.210Z,99939.47
2023-03-26T01:12:38.815Z,99940.69
2023-03-26T01:16:03.008Z,99946.84
2023-03-26T01:19:34.003Z,99952.00
2023-03-26T01:23:01.273Z,99952.00
2023-03-26T01:26:39.513Z,99957.16
2023-03-26T01:30:06.727Z,99959.44
2023-03-26T01:33:36.634Z,99960.25
2023-03-26T01:37:13.182Z,99965.72
2023-03-26T01:40:42.921Z,99959.16
2023-03-26T01:44:14.356Z,99967.44
2023-03-26T01:47:37.087Z,99966.22
2023-03-26T01:50:58.819Z,99973.84
2023-03-26T01:54:23.705Z,99980.91
2023-03-26T01:57:56.889Z,99976.00
2023-03-26T02:01:27.892Z,99962.03
2023-03-26T02:04:55.781Z,99965.78
2023-03-26T02:08:22.708Z,99966.88
2023-03-26T02:11:46.804Z,99972.19
2023-03-26T02:15:09.938Z,99967.16
2023-03-26T02:18:37.155Z,99980.66
2023-03-26T02:21:59.981Z,99973.16
2023-03-26T02:25:23.377Z,99976.06
2023-03-26T02:28:46.029Z,99981.38
2023-03-26T02:32:13.298Z,99981.47
2023-03-26T02:35:36.300Z,99984.66
2023-03-26T02:39:00.238Z,99982.16
2023-03-26T02:42:23.820Z,99988.00
2023-03-26T02:45:46.865Z,99991.25
2023-03-26T02:49:44.489Z,99990.41
2023-03-26T02:53:13.687Z,99995.84
2023-03-26T02:56:38.620Z,99993.03
2023-03-26T03:00:27.021Z,99990.13
2023-03-26T03:03:48.599Z,99996.28
2023-03-26T03:07:18.552Z,99994.72
2023-03-26T03:10:42.444Z,99998.69
2023-03-26T03:14:10.994Z,99995.66
2023-03-26T03:17:33.478Z,100002.88
2023-03-26T03:20:55.432Z,100004.31
2023-03-26T03:24:18.274Z,100016.25
2023-03-26T03:27:43.473Z,100002.03
2023-03-26T03:31:09.628Z,100017.22
2023-03-26T03:34:31.997Z,100027.94
2023-03-26T03:37:53.856Z,100028.78
2023-03-26T03:41:17.488Z,100026.66
2023-03-26T03:44:41.680Z,100025.22
2023-03-26T03:48:14.750Z,100035.81
2023-03-26T03:51:39.998Z,100028.97
2023-03-26T03:55:11.604Z,100034.59
2023-03-26T03:58:42.270Z,100037.97
2023-03-26T04:02:21.274Z,100043.97
2023-03-26T04:05:55.176Z,100037.56
2023-03-26T04:09:19.673Z,100038.41
2023-03-26T04:12:42.486Z,100038.41
2023-03-26T04:16:09.291Z,100046.47
2023-03-26T04:19:32.446Z,100037.69
2023-03-26T04:22:54.523Z,100037.09
2023-03-26T04:26:20.189Z,100040.88
2023-03-26T04:30:02.840Z,100046.66
2023-03-26T04:33:25.408Z,100043.16
2023-03-26T04:36:49.683Z,100044.13
2023-03-26T04:40:16.598Z,100045.56
2023-03-26T04:43:50.698Z,100053.66
2023-03-26T04:47:39.140Z,100045.22
2023-03-26T04:51:01.946Z,100055.94
2023-03-26T04:54:25.534Z,100057.19
2023-03-26T04:57:59.797Z,100064.50
2023-03-26T05:01:40.421Z,100062.59
2023-03-26T05:05:04.251Z,100062.97
2023-03-26T05:08:28.833Z,100060.31
2023-03-26T05:11:52.189Z,100056.56
2023-03-26T05:15:15.820Z,100060.53
2023-03-26T05:18:53.020Z,100059.81
2023-03-26T05:22:16.169Z,100060.28
2023-03-26T05:25:57.911Z,100062.78
2023-03-26T05:29:24.148Z,100061.00
2023-03-26T05:32:49.515Z,100060.13
2023-03-26T05:36:15.448Z,100060.63
2023-03-26T05:39:54.863Z,100056.63
2023-03-26T05:43:35.963Z,100058.44
2023-03-26T05:47:25.044Z,100063.59
2023-03-26T05:50:49.304Z,100062.75
2023-03-26T05:54:12.205Z,100066.13
2023-03-26T05:57:52.473Z,100067.81
2023-03-26T06:01:32.747Z,100066.25
2023-03-26T06:05:09.934Z,100067.34
2023-03-26T06:09:02.652Z,100075.28
2023-03-26T06:12:25.494Z,100075.03
2023-03-26T06:15:47.813Z,100075.75
2023-03-26T06:19:20.499Z,100077.44
2023-03-26T06:22:52.598Z,100080.34
2023-03-26T06:26:16.886Z,100087.06
2023-03-26T06:29:57.198Z,100086.09
2023-03-26T06:33:34.257Z,100092.00
2023-03-26T06:36:55.997Z,100088.50
2023-03-26T06:40:19.554Z,100085.47
2023-03-26T06:43:55.799Z,100092.31
2023-03-26T06:47:37.681Z,100092.44
2023-03-26T06:51:18.030Z,100090.25
2023-03-26T06:54:58.352Z,100086.75
2023-03-26T06:58:41.326Z,100094.19
2023-03-26T07:02:21.848Z,100091.69
2023-03-26T07:06:02.467Z,100098.66
2023-03-26T07:09:56.850Z,100104.56
2023-03-26T07:13:47.641Z,100102.66
2023-03-26T07:17:28.584Z,100098.91
2023-03-26T07:20:58.103Z,100079.25
2023-03-26T07:24:25.114Z,100084.56
2023-03-26T07:28:19.456Z,100099.81
2023-03-26T07:32:10.387Z,100090.00
2023-03-26T07:35:42.748Z,100104.41
2023-03-26T07:39:35.075Z,100104.69
2023-03-26T07:43:41.801Z,100107.22
2023-03-26T07:47:19.818Z,100101.44
2023-03-26T07:51:00.618Z,100105.03
2023-03-26T07:54:41.365Z,100096.38
2023-03-26T07:58:15.414Z,100108.41
2023-03-26T08:02:20.147Z,100101.81
2023-03-26T08:05:57.032Z,100113.97
2023-03-26T08:09:33.546Z,100110.69
2023-03-26T08:13:27.190Z,100111.03
2023-03-26T08:16:55.936Z,100107.97
2023-03-26T08:20:28.389Z,100111.81
2023-03-26T08:24:02.045Z,100114.66
2023-03-26T08:27:31.611Z,100113.53
2023-03-26T08:30:55.131Z,100111.22
2023-03-26T08:34:17.173Z,100120.59
2023-03-26T08:37:39.225Z,100121.19
2023-03-26T08:41:32.315Z,100110.59
2023-03-26T08:45:38.615Z,100110.19
2023-03-26T08:49:38.150Z,100119.28
2023-03-26T08:53:40.837Z,100106.38
2023-03-26T08:57:27.740Z,100104.94
2023-03-26T09:01:08.675Z,100106.44
2023-03-26T09:05:03.050Z,100103.53
2023-03-26T09:08:57.821Z,100110.63
2023-03-26T09:13:15.837Z,100095.69
2023-03-26T09:17:04.342Z,100093.56
2023-03-26T09:20:58.409Z,100090.38
2023-03-26T09:25:10.521Z,100088.75
2023-03-26T09:29:22.448Z,100084.03
2023-03-26T09:33:14.581Z,100079.22
2023-03-26T09:36:54.059Z,100076.03
2023-03-26T09:40:18.947Z,100077.97
2023-03-26T09:43:57.870Z,100094.16
2023-03-26T09:47:49.852Z,100088.59
2023-03-26T09:51:37.349Z,100071.81
2023-03-26T09:55:28.868Z,100078.41
2023-03-26T09:59:07.125Z,100071.63
2023-03-26T10:02:55.382Z,100080.16
2023-03-26T10:06:45.942Z,100076.66
2023-03-26T10:10:16.240Z,100068.78
2023-03-26T10:13:56.693Z,100058.75
2023-03-26T10:17:38.556Z,100077.63
2023-03-26T10:21:08.311Z,100066.91
2023-03-26T10:24:54.462Z,100068.56
2023-03-26T10:28:31.142Z,100071.16
2023-03-26T10:31:59.948Z,100075.34
2023-03-26T10:35:28.158Z,100072.13
2023-03-26T10:39:05.006Z,100075.91
2023-03-26T10:42:45.321Z,100074.41
2023-03-26T10:46:27.858Z,100075.25
2023-03-26T10:50:17.143Z,100075.94
2023-03-26T10:53:52.057Z,100068.53
2023-03-26T10:57:26.528Z,100061.41
2023-03-26T11:00:56.109Z,100069.53
2023-03-26T11:04:27.077Z,100072.88
2023-03-26T11:07:57.321Z,100071.75
2023-03-26T11:11:26.487Z,100075.81
2023-03-26T11:14:57.690Z,100075.13
2023-03-26T11:18:24.254Z,100065.34
2023-03-26T11:21:57.170Z,100076.78
2023-03-26T11:25:49.241Z,100072.59
2023-03-26T11:29:40.233Z,100071.75
2023-03-26T11:33:07.312Z,100064.19
2023-03-26T11:36:35.826Z,100071.91
2023-03-26T11:40:01.751Z,100076.50
2023-03-26T11:43:28.010Z,100074.28
2023-03-26T11:46:54.069Z,100064.63
2023-03-26T11:50:22.274Z,100062.53
2023-03-26T11:53:46.851Z,100058.72
2023-03-26T11:57:14.013Z,100056.63
2023-03-26T12:00:35.962Z,100051.59
2023-03-26T12:04:00.010Z,100047.97
2023-03-26T12:07:24.533Z,100052.16
2023-03-26T12:10:51.715Z,100054.97
2023-03-26T12:14:19.762Z,100048.38
2023-03-26T12:17:42.238Z,100049.22
2023-03-26T12:21:08.759Z,100046.97
2023-03-26T12:24:34.047Z,100046.97
2023-03-26T12:28:02.866Z,100041.38
2023-03-26T12:31:26.519Z,100041.66
2023-03-26T12:34:48.734Z,100040.69
2023-03-26T12:38:19.150Z,100047.81
2023-03-26T12:43:53.486Z,100042.38
2023-03-26T12:45:29.216Z,100034.25
2023-03-26T12:48:51.410Z,100031.72
2023-03-26T12:52:29.289Z,100028.91
2023-03-26T12:56:01.250Z,100028.19
2023-03-26T12:59:38.631Z,100023.97
2023-03-26T13:03:24.364Z,100023.81
2023-03-26T13:07:01.077Z,100009.94
2023-03-26T13:10:38.138Z,100008.06
2023-03-26T13:14:16.223Z,100006.00
2023-03-26T13:17:45.987Z,100008.06
2023-03-26T13:21:12.153Z,100003.75
2023-03-26T13:24:48.178Z,100012.50
2023-03-26T13:28:21.130Z,100015.06
2023-03-26T13:31:54.950Z,100013.69
2023-03-26T13:35:28.350Z,100010.59
2023-03-26T13:39:03.523Z,100000.38
2023-03-26T13:42:41.380Z,100003.44
2023-03-26T13:46:12.504Z,100000.56
2023-03-26T13:49:38.705Z,99997.72
2023-03-26T13:53:07.802Z,99992.13
2023-03-26T13:56:35.918Z,99991.81
2023-03-26T14:00:01.625Z,99990.78
2023-03-26T14:03:30.459Z,99990.78
2023-03-26T14:06:58.586Z,99983.59
2023-03-26T14:10:27.317Z,99981.50
2023-03-26T14:13:56.663Z,99984.25
2023-03-26T14:17:22.441Z,99987.31
2023-03-26T14:21:05.058Z,99998.50
2023-03-26T14:24:52.551Z,99999.81
2023-03-26T14:28:42.530Z,100011.34
2023-03-26T14:32:24.141Z,100000.03
2023-03-26T14:35:56.022Z,99996.97
2023-03-26T14:39:41.414Z,100010.59
2023-03-26T14:43:20.672Z,99993.31
2023-03-26T14:47:08.073Z,100002.69
2023-03-26T14:50:48.074Z,100005.28
2023-03-26T14:54:14.042Z,100008.44
2023-03-26T14:57:57.374Z,99995.56
2023-03-26T15:01:26.644Z,100005.22
2023-03-26T15:05:12.965Z,99999.16
2023-03-26T15:09:06.811Z,99995.13
2023-03-26T15:12:48.139Z,100002.31
2023-03-26T15:16:31.344Z,99998.25
2023-03-26T15:20:38.053Z,100001.34
2023-03-26T15:24:38.878Z,100009.91
2023-03-26T15:28:33.719Z,99996.50
2023-03-26T15:32:17.024Z,100003.59
2023-03-26T15:36:13.848Z,99992.84
2023-03-26T15:39:58.965Z,99994.88
2023-03-26T15:43:22.058Z,99993.41
2023-03-26T15:46:58.985Z,99999.16
2023-03-26T15:50:47.547Z,99993.81
2023-03-26T15:54:22.715Z,100002.91
2023-03-26T15:57:53.626Z,99998.75
2023-03-26T16:01:22.613Z,100001.75
2023-03-26T16:04:51.818Z,100003.72
2023-03-26T16:08:24.348Z,99999.91
2023-03-26T16:11:53.973Z,100001.19
2023-03-26T16:15:30.845Z,99995.41
2023-03-26T16:18:59.472Z,100000.00
2023-03-26T16:22:56.188Z,100009.03
2023-03-26T16:26:23.259Z,100004.25
2023-03-26T16:30:31.494Z,100010.50
2023-03-26T16:33:57.381Z,100006.84
2023-03-26T16:37:38.285Z,100008.22
2023-03-26T16:41:04.612Z,100006.97
2023-03-26T16:44:38.622Z,100006.22
2023-03-26T16:48:11.256Z,100007.22
2023-03-26T16:51:54.616Z,100010.88
2023-03-26T16:55:22.663Z,100016.25
2023-03-26T16:58:56.217Z,100007.03
2023-03-26T17:02:27.431Z,100008.31
2023-03-26T17:06:07.121Z,100006.81
2023-03-26T17:09:46.589Z,100013.41
2023-03-26T17:13:16.707Z,100021.97
2023-03-26T17:16:44.566Z,100022.53
2023-03-26T17:20:16.694Z,100030.00
2023-03-26T17:24:04.058Z,100023.59
2023-03-26T17:27:34.798Z,100040.28
2023-03-26T17:31:05.591Z,100047.84
2023-03-26T17:35:00.563Z,100052.63
2023-03-26T17:39:00.168Z,100054.19
2023-03-26T17:42:29.041Z,100064.41
2023-03-26T17:46:02.849Z,100073.28
2023-03-26T17:49:31.211Z,100079.72
2023-03-26T17:52:57.679Z,100085.47
2023-03-26T17:56:32.085Z,100088.53
2023-03-26T17:59:58.812Z,100085.06
2023-03-26T18:03:24.851Z,100091.06
2023-03-26T18:07:06.049Z,100088.13
2023-03-26T18:10:47.430Z,100095.94
2023-03-26T18:14:27.811Z,100094.41
2023-03-26T18:17:51.201Z,100104.03
2023-03-26T18:21:18.820Z,100100.81
2023-03-26T18:24:42.421Z,100106.66
2023-03-26T18:28:05.619Z,100108.06
2023-03-26T18:31:27.963Z,100113.78
2023-03-26T18:34:56.961Z,100114.06
2023-03-26T18:38:35.435Z,100120.63
2023-03-26T18:41:59.627Z,100114.16
2023-03-26T18:45:27.658Z,100119.75
2023-03-26T18:48:49.153Z,100120.00
2023-03-26T18:52:16.103Z,100122.22
2023-03-26T18:55:40.387Z,100126.09
2023-03-26T18:59:04.587Z,100137.97
2023-03-26T19:02:26.958Z,100131.50
2023-03-26T19:05:50.599Z,100133.97
2023-03-26T19:09:30.349Z,100138.84
2023-03-26T19:12:57.539Z,100143.56
2023-03-26T19:16:24.208Z,100144.78
2023-03-26T19:19:46.053Z,100145.16
2023-03-26T19:23:10.862Z,100161.41
2023-03-26T19:26:34.253Z,100148.41
2023-03-26T19:29:56.020Z,100156.75
2023-03-26T19:33:21.442Z,100155.22
2023-03-26T19:36:57.344Z,100159.56
2023-03-26T19:40:22.160Z,100160.25
2023-03-26T19:43:49.778Z,100158.84
2023-03-26T19:47:18.775Z,100166.91
2023-03-26T19:50:43.852Z,100163.66
2023-03-26T19:54:15.944Z,100164.78
2023-03-26T19:57:38.775Z,100163.81
2023-03-26T20:01:02.105Z,100161.66
2023-03-26T20:04:23.663Z,100160.25
2023-03-26T20:07:45.614Z,100162.19
2023-03-26T20:11:13.902Z,100168.81
2023-03-26T20:14:36.192Z,100164.16
2023-03-26T20:18:00.908Z,100164.53
2023-03-26T20:21:22.832Z,100167.56
2023-03-26T20:24:45.910Z,100176.00
2023-03-26T20:28:08.895Z,100165.06
2023-03-26T20:31:30.684Z,100174.47
2023-03-26T20:34:54.140Z,100169.69
2023-03-26T20:38:16.953Z,100175.94
2023-03-26T20:41:44.959Z,100184.00
2023-03-26T20:45:17.773Z,100179.81
2023-03-26T20:48:39.682Z,100183.06
2023-03-26T20:52:03.169Z,100186.94
2023-03-26T20:55:25.772Z,100187.41
2023-03-26T20:58:54.683Z,100195.72
2023-03-26T21:02:20.399Z,100202.94
2023-03-26T21:05:42.890Z,100198.13
2023-03-26T21:09:06.464Z,100196.69
2023-03-26T21:12:33.407Z,100200.56
2023-03-26T21:15:55.860Z,100209.44
2023-03-26T21:19:18.071Z,100206.91
2023-03-26T21:22:46.338Z,100212.16
2023-03-26T21:26:16.406Z,100223.31
2023-03-26T21:29:38.654Z,100216.00
2023-03-26T21:33:00.818Z,100220.16
2023-03-26T21:36:23.079Z,100223.88
2023-03-26T21:39:45.844Z,100228.34
2023-03-26T21:43:12.726Z,100227.34
2023-03-26T21:46:35.269Z,100240.16
2023-03-26T21:49:57.685Z,100232.66
2023-03-26T21:53:19.946Z,100231.94
2023-03-26T21:56:49.934Z,100230.25
2023-03-26T22:00:16.238Z,100237.78
2023-03-26T22:03:47.529Z,100241.84
2023-03-26T22:07:14.532Z,100232.94
2023-03-26T22:10:37.125Z,100236.78
2023-03-26T22:13:59.414Z,100233.63
2023-03-26T22:17:23.686Z,100241.56
2023-03-26T22:20:46.711Z,100245.16
2023-03-26T22:24:08.793Z,100250.63
2023-03-26T22:27:30.262Z,100244.97
2023-03-26T22:30:52.243Z,100250.50
2023-03-26T22:34:15.415Z,100259.69
2023-03-26T22:37:37.867Z,100259.91
2023-03-26T22:40:59.584Z,100268.16
2023-03-26T22:44:21.938Z,100283.16
2023-03-26T22:47:44.880Z,100273.56
2023-03-26T22:51:10.314Z,100273.88
2023-03-26T22:54:31.882Z,100283.81
2023-03-26T22:57:53.741Z,100287.19
2023-03-26T23:01:18.110Z,100283.81
2023-03-26T23:04:42.650Z,100288.56
2023-03-26T23:08:07.717Z,100294.06
2023-03-26T23:11:30.621Z,100296.19
2023-03-26T23:14:52.985Z,100299.03
2023-03-26T23:18:14.774Z,100299.38
2023-03-26T23:21:36.630Z,100299.56
2023-03-26T23:24:59.477Z,100295.66
2023-03-26T23:28:23.960Z,100305.59
2023-03-26T23:31:45.607Z,100317.84
2023-03-26T23:35:08.313Z,100314.47
2023-03-26T23:38:43.467Z,100322.69
2023-03-26T23:42:07.624Z,100336.75
2023-03-26T23:45:29.554Z,100335.97
2023-03-26T23:48:52.151Z,100340.00
2023-03-26T23:52:14.070Z,100341.16
2023-03-26T23:55:36.548Z,100357.19
2023-03-26T23:59:00.563Z,100354.84
